createdAt,value
2023-05-09T00:00:06.440Z,36.60
2023-05-09T00:05:27.951Z,25.30
2023-05-09T00:10:31.219Z,26.30
2023-05-09T00:15:34.257Z,24.80
2023-05-09T00:20:37.584Z,24.80
2023-05-09T00:25:40.711Z,22.80
2023-05-09T00:30:43.779Z,24.10
2023-05-09T00:35:47.505Z,25.60
2023-05-09T00:40:50.650Z,24.90
2023-05-09T00:45:54.073Z,22.00
2023-05-09T00:50:57.246Z,23.20
2023-05-09T00:56:00.749Z,19.60
2023-05-09T01:01:04.677Z,19.10
2023-05-09T01:06:39.924Z,18.30
2023-05-09T01:12:22.560Z,16.60
2023-05-09T01:18:04.496Z,17.60
2023-05-09T01:23:25.916Z,16.30
2023-05-09T01:29:04.654Z,19.00
2023-05-09T01:34:10.221Z,21.20
2023-05-09T01:39:15.320Z,17.80
2023-05-09T01:44:19.932Z,18.90
2023-05-09T01:49:24.142Z,17.90
2023-05-09T01:54:28.899Z,18.10
2023-05-09T01:59:34.833Z,18.10
2023-05-09T02:04:40.537Z,19.80
2023-05-09T02:09:43.868Z,17.70
2023-05-09T02:14:47.072Z,17.60
2023-05-09T02:19:50.164Z,15.90
2023-05-09T02:24:53.565Z,16.50
2023-05-09T02:29:58.575Z,17.10
2023-05-09T02:35:04.207Z,13.40
2023-05-09T02:40:11.989Z,14.40
2023-05-09T02:45:15.354Z,13.70
2023-05-09T02:50:18.723Z,13.10
2023-05-09T02:55:22.443Z,13.80
2023-05-09T03:00:26.295Z,13.20
2023-05-09T03:10:32.284Z,14.80
2023-05-09T03:15:35.373Z,15.20
2023-05-09T03:20:38.382Z,15.00
2023-05-09T03:25:41.405Z,16.70
2023-05-09T03:30:44.489Z,17.10
2023-05-09T03:35:47.490Z,16.60
2023-05-09T03:40:51.619Z,17.20
2023-05-09T03:45:54.632Z,18.00
2023-05-09T03:50:57.756Z,17.90
2023-05-09T03:56:00.938Z,18.20
2023-05-09T04:01:04.149Z,17.10
2023-05-09T04:06:07.764Z,17.50
2023-05-09T04:11:11.087Z,19.70
2023-05-09T04:16:14.114Z,21.20
2023-05-09T04:21:17.186Z,20.80
2023-05-09T04:26:22.842Z,22.60
2023-05-09T04:31:28.239Z,20.30
2023-05-09T04:36:34.035Z,20.20
2023-05-09T04:41:37.238Z,18.50
2023-05-09T04:46:40.704Z,18.40
2023-05-09T04:51:43.724Z,16.80
2023-05-09T04:56:47.857Z,16.80
2023-05-09T05:01:51.858Z,15.60
2023-05-09T05:06:54.956Z,15.30
2023-05-09T05:12:01.763Z,15.30
2023-05-09T05:17:06.225Z,15.00
2023-05-09T05:22:09.306Z,15.00
2023-05-09T05:27:12.616Z,15.00
2023-05-09T05:32:15.623Z,12.70
2023-05-09T05:37:18.723Z,13.60
2023-05-09T05:42:21.937Z,12.70
2023-05-09T05:47:24.943Z,9.50
2023-05-09T05:52:28.757Z,10.30
2023-05-09T05:57:32.273Z,11.90
2023-05-09T06:07:38.579Z,12.80
2023-05-09T06:12:42.362Z,13.40
2023-05-09T06:17:45.418Z,10.80
2023-05-09T06:22:48.519Z,11.50
2023-05-09T06:27:51.538Z,9.00
2023-05-09T06:32:55.757Z,8.30
2023-05-09T06:37:58.967Z,7.40
2023-05-09T06:43:01.998Z,8.00
2023-05-09T06:48:06.067Z,7.10
2023-05-09T06:53:09.117Z,6.40
2023-05-09T06:58:12.465Z,6.10
2023-05-09T07:03:16.255Z,6.00
2023-05-09T07:08:19.349Z,5.70
2023-05-09T07:13:22.427Z,5.50
2023-05-09T07:18:25.663Z,6.10
2023-05-09T07:23:28.866Z,7.60
2023-05-09T07:28:31.886Z,6.20
2023-05-09T07:33:35.096Z,6.20
2023-05-09T07:38:38.125Z,5.10
2023-05-09T07:43:41.185Z,4.70
2023-05-09T07:48:44.288Z,4.90
2023-05-09T07:53:47.393Z,4.70
2023-05-09T07:58:50.399Z,5.10
2023-05-09T08:03:53.572Z,5.30
2023-05-09T08:08:56.814Z,5.30
2023-05-09T08:13:59.925Z,4.80
2023-05-09T08:19:03.314Z,5.20
2023-05-09T08:24:08.374Z,4.90
2023-05-09T08:29:12.243Z,4.10
2023-05-09T08:34:15.524Z,4.70
2023-05-09T08:39:19.406Z,4.00
2023-05-09T08:44:23.738Z,6.80
2023-05-09T08:49:28.332Z,7.80
2023-05-09T08:54:32.185Z,4.70
2023-05-09T08:59:37.663Z,3.70
2023-05-09T09:04:41.185Z,5.50
2023-05-09T09:09:47.534Z,3.70
2023-05-09T09:14:56.153Z,3.60
2023-05-09T09:20:03.178Z,54.50
2023-05-09T09:25:06.449Z,6.20
2023-05-09T09:30:11.947Z,3.80
2023-05-09T09:35:15.016Z,9.50
2023-05-09T09:40:18.272Z,3.40
2023-05-09T09:45:21.496Z,3.50
2023-05-09T09:50:25.790Z,3.20
2023-05-09T09:55:29.698Z,3.50
2023-05-09T10:00:33.312Z,3.70
2023-05-09T10:05:38.989Z,3.50
2023-05-09T10:10:42.798Z,3.30
2023-05-09T10:15:53.441Z,6.90
2023-05-09T10:21:03.773Z,3.80
2023-05-09T10:26:29.111Z,8.20
2023-05-09T10:31:36.034Z,8.30
2023-05-09T10:36:39.287Z,3.50
2023-05-09T10:41:43.218Z,3.20
2023-05-09T10:46:46.771Z,3.10
2023-05-09T10:51:51.834Z,3.50
2023-05-09T10:56:56.520Z,3.60
2023-05-09T11:02:03.684Z,3.20
2023-05-09T11:07:27.510Z,3.90
2023-05-09T11:12:30.630Z,5.50
2023-05-09T11:17:38.916Z,3.70
2023-05-09T11:22:44.826Z,4.80
2023-05-09T11:27:50.346Z,3.50
2023-05-09T11:32:55.919Z,5.20
2023-05-09T11:38:07.072Z,3.10
2023-05-09T11:43:10.568Z,3.70
2023-05-09T11:53:16.686Z,3.40
2023-05-09T11:58:20.508Z,3.70
2023-05-09T12:03:24.955Z,3.10
2023-05-09T12:08:29.364Z,3.20
2023-05-09T12:13:32.851Z,3.80
2023-05-09T12:18:36.504Z,6.30
2023-05-09T12:28:43.732Z,4.10
2023-05-09T12:33:47.149Z,6.80
2023-05-09T12:38:55.629Z,9.70
2023-05-09T12:43:58.784Z,3.50
2023-05-09T12:49:02.122Z,3.00
2023-05-09T12:54:05.622Z,3.60
2023-05-09T12:59:11.489Z,3.50
2023-05-09T13:04:20.526Z,4.40
2023-05-09T13:09:28.056Z,3.20
2023-05-09T13:14:31.234Z,3.20
2023-05-09T13:19:39.491Z,3.70
2023-05-09T13:24:42.576Z,3.40
2023-05-09T13:29:45.582Z,3.40
2023-05-09T13:34:48.599Z,4.10
2023-05-09T13:39:51.799Z,3.50
2023-05-09T13:44:54.911Z,3.40
2023-05-09T13:49:58.036Z,3.60
2023-05-09T13:55:01.318Z,3.60
2023-05-09T14:00:05.297Z,3.60
2023-05-09T14:05:09.283Z,3.30
2023-05-09T14:10:13.204Z,3.20
2023-05-09T14:15:16.747Z,3.10
2023-05-09T14:20:21.184Z,4.80
2023-05-09T14:25:24.367Z,3.40
2023-05-09T14:30:27.507Z,3.70
2023-05-09T14:35:32.889Z,3.70
2023-05-09T14:40:35.940Z,3.50
2023-05-09T14:45:39.610Z,18.50
2023-05-09T14:50:42.523Z,7.30
2023-05-09T14:55:45.469Z,3.30
2023-05-09T15:00:49.691Z,3.40
2023-05-09T15:05:53.000Z,3.00
2023-05-09T15:10:57.702Z,4.20
2023-05-09T15:16:00.632Z,6.50
2023-05-09T15:21:03.952Z,4.20
2023-05-09T15:26:14.436Z,5.10
2023-05-09T15:31:21.806Z,2.80
2023-05-09T15:36:24.981Z,3.30
2023-05-09T15:41:28.765Z,3.80
2023-05-09T15:46:32.685Z,3.20
2023-05-09T15:51:35.780Z,3.80
2023-05-09T15:56:38.692Z,3.60
2023-05-09T16:01:46.291Z,3.40
2023-05-09T16:06:49.336Z,4.40
2023-05-09T16:11:52.368Z,4.40
2023-05-09T16:16:55.523Z,4.40
2023-05-09T16:21:58.730Z,3.40
2023-05-09T16:27:01.681Z,3.20
2023-05-09T16:32:04.910Z,5.60
2023-05-09T16:37:08.352Z,4.90
2023-05-09T16:42:11.617Z,11.80
2023-05-09T16:47:14.611Z,4.00
2023-05-09T16:52:17.675Z,4.20
2023-05-09T16:57:20.811Z,3.40
2023-05-09T17:02:23.799Z,4.20
2023-05-09T17:07:26.812Z,7.40
2023-05-09T17:12:30.374Z,5.30
2023-05-09T17:22:37.136Z,5.50
2023-05-09T17:27:41.689Z,6.00
2023-05-09T17:32:45.012Z,6.20
2023-05-09T17:37:48.412Z,5.10
2023-05-09T17:42:51.335Z,5.80
2023-05-09T17:47:54.507Z,6.30
2023-05-09T17:52:57.501Z,10.70
2023-05-09T17:58:00.500Z,9.70
2023-05-09T18:03:04.250Z,8.90
2023-05-09T18:08:07.398Z,8.70
2023-05-09T18:13:11.001Z,11.50
2023-05-09T18:23:19.008Z,10.20
2023-05-09T18:28:25.338Z,8.20
2023-05-09T18:33:29.020Z,12.60
2023-05-09T18:43:46.204Z,11.30
2023-05-09T18:48:52.838Z,14.40
2023-05-09T18:53:56.892Z,11.50
2023-05-09T18:58:59.823Z,11.40
2023-05-09T19:04:02.840Z,11.30
2023-05-09T19:09:08.836Z,13.40
2023-05-09T19:14:11.980Z,13.30
2023-05-09T19:19:14.906Z,12.20
2023-05-09T19:24:18.222Z,10.70
2023-05-09T19:29:21.290Z,12.30
2023-05-09T19:34:24.836Z,11.80
2023-05-09T19:39:29.252Z,11.90
2023-05-09T19:44:32.251Z,11.30
2023-05-09T19:49:35.239Z,11.20
2023-05-09T19:54:38.645Z,8.50
2023-05-09T19:59:41.729Z,7.70
2023-05-09T20:04:49.903Z,7.60
2023-05-09T20:09:53.002Z,7.90
2023-05-09T20:14:56.134Z,6.50
2023-05-09T20:19:59.237Z,7.50
2023-05-09T20:25:02.218Z,7.00
2023-05-09T20:30:06.466Z,6.20
2023-05-09T20:35:09.842Z,6.70
2023-05-09T20:40:14.026Z,7.10
2023-05-09T20:45:17.312Z,6.90
2023-05-09T20:50:20.209Z,6.90
2023-05-09T20:55:23.277Z,5.90
2023-05-09T21:00:26.363Z,6.00
2023-05-09T21:05:29.249Z,6.00
2023-05-09T21:10:32.185Z,6.30
2023-05-09T21:15:35.055Z,5.60
2023-05-09T21:20:38.613Z,5.50
2023-05-09T21:30:52.183Z,5.50
2023-05-09T21:35:55.411Z,5.10
2023-05-09T21:40:58.434Z,5.80
2023-05-09T21:46:01.379Z,5.60
2023-05-09T21:51:04.559Z,5.70
2023-05-09T21:56:08.288Z,5.70
2023-05-09T22:06:13.925Z,5.10
2023-05-09T22:11:18.078Z,6.20
2023-05-09T22:16:22.513Z,5.90
2023-05-09T22:21:25.541Z,6.00
2023-05-09T22:26:28.438Z,6.50
2023-05-09T22:31:31.511Z,6.30
2023-05-09T22:36:34.450Z,5.50
2023-05-09T22:41:37.343Z,6.00
2023-05-09T22:46:42.542Z,6.20
2023-05-09T22:51:45.786Z,6.60
2023-05-09T22:56:48.708Z,6.70
2023-05-09T23:01:52.902Z,6.20
2023-05-09T23:06:56.204Z,6.20
2023-05-09T23:11:59.723Z,6.00
2023-05-09T23:17:02.743Z,5.70
2023-05-09T23:22:05.680Z,6.10
2023-05-09T23:27:08.682Z,6.20
2023-05-09T23:32:11.681Z,6.00
2023-05-09T23:37:14.613Z,5.30
2023-05-09T23:42:17.592Z,6.20
2023-05-09T23:47:20.507Z,5.70
2023-05-09T23:52:23.466Z,6.10
2023-05-09T23:57:26.540Z,6.20
